Timeline UpdatesTrip UpdatesNews PostsPvt PostsTravel TipsAdmin PostsConv PostsFollowed PostsChat RequestsBlog PostsPNR Posts

Disclaimer
Search
 
 
Tue Sep 2, 2014 17:10:59 ISTHomeTrainsΣChainsAtlasPNRForumGalleryNewsFAQTripsMembersLoginFeedback
No Recent News for this Train
Other Trains in the News **new
Latest...
Will Reach TVC @ 17.15 Wef 05/07/2014.
Sat Jun 28, 2014 (08:30PM)
⇐ Return Journey: Train# 12512

12511/Raptisagar SF Express

Time-Table HAS CHANGED.
Yesterday (3:40PM)
Change Departure Station:
Change Arrival Station:
Post a Train Travel TipPost a Train Travel Tip **new
Post a Comment/Question/Picture/VideoPost a Comment/Question/Picture/Video
Pantry/Catering
✓ Pantry Car Avbl
✓ Catering Avbl
Loco/Rake Reversals
LJN/Lucknow Junction (6); MAS/Chennai Central (12); SRR/Shoranur Junction (7);
RSA - Rake Sharing
12511/12512/12589/12590/12591/12592
Rake/Coach Composition
Loco- SLR-UR-UR-A1-B4-B3-B2-B1-PC-S12-S11-S10-S9-S8-S7-S6-S5-S4-S3-S2-S1-UR-UR-SLR. ; 2AC-1, 3AC-4, PC-1, SL-12, UR-4, SLR-2= 24 COACHES.; B4 added as per http://indiarailinfo.com/pnr/post/635962
Loco
#WDM 3A GondaTill Jhansi . #WAP 4 ED/AJJ/RPM
News    PNR    Forum    Time-Table    Availability    Fare Chart    Map    Arr/Dep History    Trips    Gallery    ΣChains    X/O    Timeline    
Travel Time: 2h 30m    2 halts    Distance: 100 km    Avg Speed: 40 km/hr
Type: SuperFast
Zone: NER/North Eastern
Departs @ 07:40
Platform# 1
S T   S
Coimbatore Main Junction/CBE 
Arrives @ 10:10
Platform# 5
S T   S
Shoranur Junction/SRR 

2 halts. 14 intermediate Stations between Coimbatore Main Junction and Shoranur Junction

Show ALL intermediate Stations  Show Old Time-Table

#CodeStation NameX/OArrivesAvgDepartsAvgHaltPFDay#KmSpeedElevZoneAddress
1GKPGorakhpur Junction (10)  -06:35-91-2835.05484mNERGorakhpur 273001, Uttar Pradesh
2KLDKhalilabad (3)  07:11 07:13-07:13 07:15-2m11-2801.07186mNERKhalilabad- 272175, Uttar Pradesh
3BSTBasti (4)  07:40-07:45-5m11-2771.58190mNERBasti 272001, Uttar Pradesh
4MURMankapur Junction (5)X  08:35 08:30-08:37 08:32-2m31-2711.060104mNERDistrict Gonda, Uttar Pradesh
5GDGonda Junction (3)  09:00-09:05-5m11-2683.165110mNERGonda 271001, Uttar Pradesh
6BBKBarabanki Junction (4)  10:27-10:29-2m11-2593.855122mNRPin-225001, Uttar Pradesh
7BNZBadshahnagar (2)  10:56-10:58-2m11-2569.221116mNERLucknow, Uttar Pradesh
8LJNLucknow Junction (6)X11:30-11:50-20m21-2558.165126mNERLucknow, Uttar Pradesh
9ONUnnao Junction (5)X  12:41 12:40-12:43 12:42-2m21-2504.330129mNRUnnao, Uttar Pradesh
10CNBKanpur Central (10)  13:17-13:22-5m41-2486.964128mNCRKANPUR-208 001, Uttar Pradesh
11PHNPokhrayan (2)  14:17-14:19-2m11-2428.465133mNCRPukhrayan, Uttar Pradesh
12ORAIOrai (3)  14:55 15:03-15:00 15:05-5 2m21-2380.670139mNCROrai(05162-252206), Uttar Pradesh
13JHSJhansi Junction (7)16:45 16:43-17:00 16:55-15 12m21-2266.687259mNCRJhansi, Uttar Pradesh
14LARLalitpur (3)  18:02 17:57-18:04 17:59-2m11-2176.362373mNCRLalitpur, Uttar Pradesh
15BPLBhopal Junction (6)X  21:05 21:15-21:15 21:20-10 5m11-1974.855497mWCRBhopal, Madhya Pradesh
16ETItarsi Junction (7)  23:00-23:05-5m21-1883.168329mWCRItarsi 461111, Madhya Pradesh
17GDYAGhoradongri (3)  00:07-00:09-2m--2-1812.749 CRBetul, Madhya Pradesh
18BZUBetul (3)X  00:53-00:55-2m--2-1776.857644mCRBetul, Madhya Pradesh
19AMLAAmla Junction (5)X  01:19-01:22-3m--2-1753.969733mCRAmla Distt. Betul, Madhya Pradesh
20PARPandhurna (2)X  02:23 02:17-02:25 02:19-2m--2-1690.369481mCRDistt: Chhindwara, Madhya Pradesh
21NGPNagpur Junction (8)X  04:10 03:50-04:20 04:00-10m22-1585.979314mCRNagpur 440001, Maharashtra
22SEGMSewagram Junction (5)  05:18 04:58-05:20 05:00-2m--2-1509.752279mCRWardha, Maharashtra
23HGTHinganghat (3)X  05:48 05:38-05:50 05:40-2m--2-1476.667228mCRHinganghat, Maharashtra
24CDChandrapur Maharashtra (3)  06:56-06:58-2m--2-1391.112194mCRChandrapur 442401, Maharashtra
25BPQBalharshah Junction (5)XO08:05-08:35-30m32-1377.485188mCRBallarpur. Ph : 07172 - 240341, Maharashtra
26SKZRSirpur Kaghaznagar (3)  09:24-09:26-2m22-1307.664181mSCRAdilabad Dist., Telangana
27BPABellampalli (3)  10:02-10:04-2m22-1269.185205mSCRTel:.08735 223298, Telangana
28MCIManchiryal (3)  10:18-10:20-2m22-1249.3103159mSCRAdilabad Dist., Telangana
29RDMRamagundam (3)X  10:28-10:30-2m22-1235.565170mSCRKarimnagar Dist. Ph : 08728 - 255237, Telangana
30WLWarangal (3)  12:03-12:05-2m12-1134.472271mSCRWarangal., Telangana
31KMTKhammam (2)  13:35-13:37-2m12-1026.845118mSCRKhammam 507001, Telangana
32BZAVijayawada Junction (10)X  15:50-16:05-15m--2-926.47424mSCRVijayawada 520001, Andhra Pradesh
33CLXChirala (4)X  17:17-17:19-2m--2-837.5698mSCRChirala, Andhra Pradesh
34OGLOngole (3)  18:02-18:04-2m32-788.29512mSCROngole, Andhra Pradesh
35NLRNellore (4)XO  19:19 19:18-19:20-1 2m32-671.42521mSCRNellore, Andhra Pradesh
36GDRGudur Junction (3)  20:53-20:55-2m12-632.95719mSCRGudur, Andhra Pradesh
37MASChennai Central (12)X23:20-23:45-25m62-495.6659mSRChennai 600003, Tamil Nadu
38KPDKatpadi Junction (5)X  01:45-01:50-5m13-366.165213mSRVellore 632007, Tamil Nadu
39JTJJolarpettai Junction (5)  03:15 03:08-03:20 03:10-5 2m--3-282.380405mSRJolarpettai, Tamil Nadu
40SASalem Junction (6)X  04:45 04:40-04:50 04:45-5m--3-162.149283mSRSalem, Tamil Nadu
41EDErode Junction (4)X  06:05 06:00-06:15 06:10-10m13-100.779175mSRErode ph.no: 0424-2256111, Tamil Nadu
42TUPTiruppur (2)X  06:58 06:48-07:00 06:50-2m13-50.567305mSRTiruppur. Ph:0421-2200450, Tamil Nadu
43CBE»Coimbatore Main Junction (6)»  07:50 07:35-07:55 07:40-5m130.041416mSRCoimbatore 641001, Tamil Nadu
44PGTPalakkad Junction (4)XO  09:05 09:00-09:10 09:05-5m2355.310684mSRPalghat Tel: 0491 2555231, Kerala
45OTPOttappalam (2)O  09:38 09:23-09:40 09:25-2m1387.11730mSROttapalam, Kerala
46SRR•Shoranur Junction (7)•10:20 10:10-10:30 10:20-10m5399.95026mSRShoranur ph.no 0466-2222913, Kerala
47WKIWadakkanchery (2)X  10:48 10:40-10:50 10:42-2m13116.45540mSRWadackanchery, Kerala
48TCRThrissur (4)  11:17 11:00-11:20 11:03-3m13132.9716mSRThrissur Tel: 0487 2423150, Kerala
49IJKIrinjalakkuda (2)  11:47 11:23-11:48 11:25-1 2m--3156.66418mSRKalletumkara, Kerala
50CKIChalakkudy (3)X  11:53 11:31-11:55 11:33-2m13163.0709mSRPh: 0480- 2701368, Kerala
51AFKAngamaly for Kalady (3)  12:08 11:46-12:10 11:48-2m--3178.24616mSRPhone: 0484-2452340, Kerala
52AWYAluva (3)X  12:20 12:00-12:23 12:02-3 2m13187.53612mSRPh: 0484-2624141, Kerala
53ERNErnakulam Town (North) (2)  12:55 12:30-12:57 12:32-2m23204.399mSRTel: 0484 2395198, Kerala
54ERSErnakulam Junction (South) (6)X  13:10 12:50-13:15 12:55-5m43206.9653mSRErnakulam 682016, Kerala
55SRTLCherthala (3)  13:58 13:26-14:00 13:28-2m23240.2567mSRPh: 0478- 2812500, Kerala
56ALLPAlappuzha (3)X  14:32 13:54-14:35 13:57-3m13264.4738mSRPh:0477-2253965, Kerala
57AMPAAmbalappuzha (1)  14:48 14:07-14:50 14:09-2m13276.6606mSRph 0477-2272620, Kerala
58HADHarippad (2)  15:08 14:27-15:10 14:29-2m--3294.4427mSRHaripad 0479-2412714, Kerala
59KYJKayamkulam Junction (5)X  15:23 14:48-15:25 14:50-2m23307.84511mSRAlappuzha Ph;0479-2442042, Kerala
60QLNKollam Junction (6)X  16:10 15:45-16:15 15:50-5m13348.64616mSRKollam 0474-2746194, Kerala
61TVCTrivandrum Central (5)  17:30 17:15--13413.2-12mSRThiruvananthapuram 695001, Kerala
Scroll to Top
Scroll to Bottom